createdAt,value
2022-11-10T00:00:04.042Z,49.78
2022-11-10T00:02:49.673Z,49.45
2022-11-10T00:05:36.545Z,48.83
2022-11-10T00:08:21.970Z,48.99
2022-11-10T00:11:07.806Z,48.63
2022-11-10T00:14:12.201Z,48.52
2022-11-10T00:17:00.895Z,48.02
2022-11-10T00:19:46.289Z,47.80
2022-11-10T00:22:32.970Z,47.76
2022-11-10T00:25:18.739Z,47.56
2022-11-10T00:28:04.524Z,48.02
2022-11-10T00:30:50.164Z,48.40
2022-11-10T00:33:36.391Z,48.73
2022-11-10T00:36:21.957Z,48.56
2022-11-10T00:39:08.277Z,47.83
2022-11-10T00:41:53.858Z,48.37
2022-11-10T00:44:39.386Z,48.18
2022-11-10T00:47:24.817Z,47.79
2022-11-10T00:50:10.567Z,48.04
2022-11-10T00:52:56.386Z,47.82
2022-11-10T00:55:41.987Z,47.58
2022-11-10T00:58:27.809Z,47.12
2022-11-10T01:01:13.680Z,47.38
2022-11-10T01:03:59.469Z,48.36
2022-11-10T01:06:47.932Z,47.82
2022-11-10T01:09:33.602Z,49.72
2022-11-10T01:12:19.162Z,48.67
2022-11-10T01:15:05.068Z,47.96
2022-11-10T01:17:50.970Z,47.30
2022-11-10T01:20:36.740Z,47.65
2022-11-10T01:23:22.362Z,47.79
2022-11-10T01:26:08.707Z,47.38
2022-11-10T01:28:54.632Z,47.15
2022-11-10T01:31:40.108Z,46.84
2022-11-10T01:34:25.517Z,46.60
2022-11-10T01:37:11.803Z,46.53
2022-11-10T01:39:57.456Z,46.23
2022-11-10T01:42:53.416Z,46.97
2022-11-10T01:45:42.143Z,49.09
2022-11-10T01:48:29.762Z,49.39
2022-11-10T01:51:18.589Z,49.95
2022-11-10T01:54:14.599Z,48.86
2022-11-10T01:57:00.712Z,48.79
2022-11-10T01:59:46.595Z,48.33
2022-11-10T02:02:33.619Z,49.03
2022-11-10T02:05:19.644Z,49.68
2022-11-10T02:08:05.362Z,49.85
2022-11-10T02:10:50.942Z,49.47
2022-11-10T02:13:36.577Z,50.96
2022-11-10T02:16:22.249Z,50.04
2022-11-10T02:19:14.914Z,49.73
2022-11-10T02:22:00.765Z,49.65
2022-11-10T02:24:46.437Z,50.06
2022-11-10T02:27:32.324Z,50.34
2022-11-10T02:30:18.034Z,51.97
2022-11-10T02:33:04.094Z,50.63
2022-11-10T02:35:49.528Z,50.88
2022-11-10T02:38:35.272Z,50.67
2022-11-10T02:41:20.838Z,51.77
2022-11-10T02:44:06.592Z,49.81
2022-11-10T02:46:52.309Z,50.25
2022-11-10T02:49:37.919Z,49.86
2022-11-10T02:52:23.562Z,49.29
2022-11-10T02:55:09.363Z,48.84
2022-11-10T02:57:54.834Z,48.48
2022-11-10T03:00:40.472Z,49.31
2022-11-10T03:03:27.318Z,49.10
2022-11-10T03:06:13.016Z,49.11
2022-11-10T03:08:58.892Z,48.86
2022-11-10T03:11:44.559Z,48.36
2022-11-10T03:14:30.270Z,48.58
2022-11-10T03:17:16.020Z,48.41
2022-11-10T03:20:01.779Z,47.95
2022-11-10T03:22:47.584Z,49.17
2022-11-10T03:25:34.293Z,49.60
2022-11-10T03:28:20.023Z,49.03
2022-11-10T03:31:05.879Z,51.58
2022-11-10T03:33:51.697Z,51.73
2022-11-10T03:36:37.399Z,54.49
2022-11-10T03:39:24.394Z,54.56
2022-11-10T03:42:09.790Z,55.31
2022-11-10T03:44:55.438Z,53.86
2022-11-10T03:47:41.407Z,56.23
2022-11-10T03:50:26.991Z,55.52
2022-11-10T03:53:12.720Z,56.75
2022-11-10T03:56:01.674Z,54.70
2022-11-10T03:58:47.090Z,53.11
2022-11-10T04:01:32.946Z,54.33
2022-11-10T04:04:56.988Z,56.75
2022-11-10T04:08:01.179Z,56.53
2022-11-10T04:10:49.917Z,55.34
2022-11-10T04:13:54.137Z,54.84
2022-11-10T04:16:39.930Z,56.18
2022-11-10T04:19:25.736Z,56.16
2022-11-10T04:22:31.353Z,55.51
2022-11-10T04:25:17.208Z,55.88
2022-11-10T04:28:03.148Z,57.73
2022-11-10T04:30:48.865Z,55.50
2022-11-10T04:33:35.180Z,56.54
2022-11-10T04:36:22.279Z,56.46
2022-11-10T04:39:08.125Z,55.28
2022-11-10T04:41:57.146Z,54.38
2022-11-10T04:44:45.306Z,56.65
2022-11-10T04:47:30.899Z,55.25
2022-11-10T04:50:16.715Z,54.64
2022-11-10T04:53:02.509Z,52.10
2022-11-10T04:55:49.043Z,52.87
2022-11-10T04:58:34.438Z,53.89
2022-11-10T05:01:21.095Z,54.92
2022-11-10T05:04:06.760Z,52.43
2022-11-10T05:06:53.994Z,54.51
2022-11-10T05:09:39.884Z,52.77
2022-11-10T05:12:25.752Z,53.46
2022-11-10T05:15:11.485Z,54.53
2022-11-10T05:17:57.185Z,55.10
2022-11-10T05:20:43.085Z,53.96
2022-11-10T05:23:41.885Z,53.63
2022-11-10T05:26:27.932Z,52.95
2022-11-10T05:29:13.800Z,54.64
2022-11-10T05:31:59.461Z,53.94
2022-11-10T05:34:45.452Z,54.06
2022-11-10T05:37:31.117Z,53.63
2022-11-10T05:40:16.877Z,54.25
2022-11-10T05:43:03.843Z,53.88
2022-11-10T05:45:50.052Z,52.78
2022-11-10T05:48:36.163Z,52.48
2022-11-10T05:51:21.945Z,54.29
2022-11-10T05:54:11.285Z,52.67
2022-11-10T05:56:56.942Z,54.14
2022-11-10T05:59:42.772Z,53.67
2022-11-10T06:02:28.524Z,52.14
2022-11-10T06:05:14.352Z,53.93
2022-11-10T06:08:00.227Z,54.05
2022-11-10T06:10:45.840Z,54.50
2022-11-10T06:13:31.695Z,52.59
2022-11-10T06:16:17.100Z,53.95
2022-11-10T06:19:02.833Z,54.46
2022-11-10T06:21:48.536Z,54.44
2022-11-10T06:24:34.249Z,53.68
2022-11-10T06:27:20.052Z,54.39
2022-11-10T06:30:05.883Z,53.56
2022-11-10T06:32:51.424Z,54.37
2022-11-10T06:35:36.945Z,54.24
2022-11-10T06:38:22.608Z,55.36
2022-11-10T06:41:08.511Z,54.17
2022-11-10T06:43:56.100Z,54.83
2022-11-10T06:46:42.485Z,53.35
2022-11-10T06:49:28.350Z,53.25
2022-11-10T06:52:13.987Z,52.16
2022-11-10T06:54:59.757Z,51.85
2022-11-10T06:57:45.475Z,52.69
2022-11-10T07:00:31.184Z,54.76
2022-11-10T07:03:16.849Z,54.12
2022-11-10T07:06:02.478Z,54.74
2022-11-10T07:08:48.559Z,53.30
2022-11-10T07:11:34.099Z,53.76
2022-11-10T07:14:19.799Z,55.00
2022-11-10T07:17:05.628Z,54.42
2022-11-10T07:19:51.058Z,53.80
2022-11-10T07:22:36.725Z,53.22
2022-11-10T07:25:22.605Z,53.77
2022-11-10T07:28:10.466Z,52.70
2022-11-10T07:30:56.303Z,54.30
2022-11-10T07:33:43.951Z,53.55
2022-11-10T07:36:29.727Z,57.31
2022-11-10T07:39:15.395Z,54.02
2022-11-10T07:42:01.136Z,53.09
2022-11-10T07:44:46.810Z,53.43
2022-11-10T07:47:32.671Z,54.36
2022-11-10T07:50:18.467Z,59.02
2022-11-10T07:53:07.469Z,56.38
2022-11-10T07:55:53.274Z,55.18
2022-11-10T07:58:39.240Z,54.54
2022-11-10T08:01:24.795Z,57.71
2022-11-10T08:04:10.646Z,57.66
2022-11-10T08:06:56.468Z,57.93
2022-11-10T08:09:42.184Z,57.51
2022-11-10T08:12:31.263Z,58.83
2022-11-10T08:15:19.013Z,59.83
2022-11-10T08:18:07.015Z,56.95
2022-11-10T08:20:52.757Z,57.51
2022-11-10T08:23:38.144Z,59.44
2022-11-10T08:26:23.968Z,56.82
2022-11-10T08:29:09.899Z,59.03
2022-11-10T08:31:55.576Z,62.34
2022-11-10T08:34:41.408Z,60.86
2022-11-10T08:37:27.781Z,59.75
2022-11-10T08:40:13.253Z,56.46
2022-11-10T08:42:59.719Z,59.39
2022-11-10T08:45:45.683Z,56.85
2022-11-10T08:48:31.343Z,58.61
2022-11-10T08:51:18.647Z,57.59
2022-11-10T08:54:04.286Z,56.38
2022-11-10T08:56:50.083Z,55.53
2022-11-10T08:59:35.817Z,54.77
2022-11-10T09:02:21.566Z,58.69
2022-11-10T09:05:07.633Z,56.27
2022-11-10T09:07:53.008Z,55.20
2022-11-10T09:10:39.900Z,53.41
2022-11-10T09:13:29.830Z,51.99
2022-11-10T09:16:16.537Z,54.86
2022-11-10T09:19:02.290Z,55.06
2022-11-10T09:21:48.143Z,55.94
2022-11-10T09:24:33.885Z,57.96
2022-11-10T09:27:19.657Z,58.25
2022-11-10T09:30:06.068Z,55.17
2022-11-10T09:32:54.928Z,56.97
2022-11-10T09:35:40.627Z,58.21
2022-11-10T09:38:26.527Z,57.84
2022-11-10T09:41:12.839Z,56.21
2022-11-10T09:44:03.227Z,54.41
2022-11-10T09:46:50.209Z,54.57
2022-11-10T09:49:37.296Z,56.28
2022-11-10T09:52:23.379Z,53.82
2022-11-10T09:55:12.103Z,53.86
2022-11-10T09:57:57.572Z,56.17
2022-11-10T10:00:45.402Z,55.24
2022-11-10T10:03:30.973Z,54.52
2022-11-10T10:06:16.400Z,58.17
2022-11-10T10:09:17.430Z,57.94
2022-11-10T10:12:18.478Z,59.06
2022-11-10T10:15:10.760Z,60.94
2022-11-10T10:18:20.220Z,60.70
2022-11-10T10:21:24.719Z,57.84
2022-11-10T10:24:16.519Z,62.16
2022-11-10T10:27:09.251Z,57.11
2022-11-10T10:29:54.744Z,58.07
2022-11-10T10:32:40.330Z,54.96
2022-11-10T10:35:25.724Z,58.31
2022-11-10T10:38:15.061Z,56.18
2022-11-10T10:41:02.182Z,58.69
2022-11-10T10:43:48.200Z,59.11
2022-11-10T10:46:35.986Z,54.44
2022-11-10T10:49:29.953Z,53.67
2022-11-10T10:52:16.723Z,54.94
2022-11-10T10:55:06.288Z,55.54
2022-11-10T10:57:52.767Z,56.91
2022-11-10T11:00:48.742Z,53.03
2022-11-10T11:03:44.664Z,53.03
2022-11-10T11:06:30.982Z,54.68
2022-11-10T11:09:23.281Z,54.25
2022-11-10T11:12:17.566Z,54.67
2022-11-10T11:15:12.667Z,57.33
2022-11-10T11:18:05.309Z,54.56
2022-11-10T11:20:58.072Z,55.30
2022-11-10T11:23:53.862Z,56.85
2022-11-10T11:26:58.239Z,55.73
2022-11-10T11:29:46.778Z,53.74
2022-11-10T11:32:37.660Z,52.22
2022-11-10T11:35:27.338Z,51.75
2022-11-10T11:38:16.887Z,52.26
2022-11-10T11:41:02.302Z,55.17
2022-11-10T11:43:59.851Z,55.41
2022-11-10T11:46:49.496Z,54.17
2022-11-10T11:49:51.984Z,55.14
2022-11-10T11:52:39.976Z,53.65
2022-11-10T11:55:40.962Z,56.67
2022-11-10T11:58:33.813Z,53.42
2022-11-10T12:01:28.814Z,52.79
2022-11-10T12:04:26.376Z,53.10
2022-11-10T12:07:18.654Z,52.31
2022-11-10T12:10:23.650Z,54.12
2022-11-10T12:13:21.126Z,54.05
2022-11-10T12:16:15.940Z,55.36
2022-11-10T12:19:23.022Z,56.80
2022-11-10T12:22:14.028Z,52.83
2022-11-10T12:25:08.985Z,51.30
2022-11-10T12:28:06.291Z,53.34
2022-11-10T12:30:53.157Z,50.92
2022-11-10T12:33:45.466Z,51.28
2022-11-10T12:36:30.959Z,52.15
2022-11-10T12:39:31.571Z,52.78
2022-11-10T12:42:19.095Z,53.52
2022-11-10T12:45:06.629Z,55.20
2022-11-10T12:47:52.116Z,51.25
2022-11-10T12:50:56.711Z,53.89
2022-11-10T12:53:42.220Z,54.20
2022-11-10T12:56:27.825Z,54.24
2022-11-10T12:59:14.192Z,55.24
2022-11-10T13:02:05.608Z,53.34
2022-11-10T13:05:09.753Z,54.64
2022-11-10T13:08:06.272Z,56.28
2022-11-10T13:10:54.799Z,54.98
2022-11-10T13:13:59.213Z,57.32
2022-11-10T13:16:49.415Z,58.21
2022-11-10T13:19:38.836Z,57.24
2022-11-10T13:22:33.675Z,56.66
2022-11-10T13:25:41.343Z,57.36
2022-11-10T13:28:45.807Z,56.19
2022-11-10T13:31:31.516Z,56.53
2022-11-10T13:34:20.005Z,54.58
2022-11-10T13:37:33.498Z,52.38
2022-11-10T13:40:24.897Z,53.27
2022-11-10T13:43:11.746Z,57.18
2022-11-10T13:46:00.860Z,55.31
2022-11-10T13:48:49.969Z,53.70
2022-11-10T13:52:05.930Z,52.11
2022-11-10T13:55:10.497Z,56.77
2022-11-10T13:58:00.193Z,56.53
2022-11-10T14:00:48.655Z,54.57
2022-11-10T14:03:47.816Z,53.80
2022-11-10T14:06:36.549Z,53.46
2022-11-10T14:09:31.602Z,52.59
2022-11-10T14:12:26.046Z,52.55
2022-11-10T14:15:11.483Z,52.50
2022-11-10T14:17:57.360Z,55.81
2022-11-10T14:20:44.285Z,55.69
2022-11-10T14:23:29.749Z,58.16
2022-11-10T14:26:18.745Z,56.39
2022-11-10T14:29:23.153Z,54.76
2022-11-10T14:32:21.554Z,55.20
2022-11-10T14:35:16.139Z,55.01
2022-11-10T14:38:02.255Z,53.54
2022-11-10T14:40:47.875Z,53.13
2022-11-10T14:43:33.428Z,54.03
2022-11-10T14:46:23.344Z,53.33
2022-11-10T14:49:09.985Z,53.78
2022-11-10T14:51:58.894Z,53.61
2022-11-10T14:54:44.563Z,53.01
2022-11-10T14:57:30.173Z,53.37
2022-11-10T15:00:17.566Z,55.06
2022-11-10T15:03:03.699Z,56.15
2022-11-10T15:05:49.736Z,54.31
2022-11-10T15:08:35.149Z,55.02
2022-11-10T15:11:40.451Z,54.99
2022-11-10T15:14:32.990Z,54.26
2022-11-10T15:17:19.993Z,51.93
2022-11-10T15:20:06.427Z,52.75
2022-11-10T15:22:52.031Z,55.27
2022-11-10T15:25:38.670Z,52.58
2022-11-10T15:28:27.389Z,52.00
2022-11-10T15:31:23.224Z,52.00
2022-11-10T15:34:27.870Z,54.01
2022-11-10T15:37:29.983Z,51.94
2022-11-10T15:40:28.326Z,52.02
2022-11-10T15:43:19.773Z,51.43
2022-11-10T15:46:15.043Z,50.36
2022-11-10T15:49:03.984Z,51.24
2022-11-10T15:51:50.050Z,51.45
2022-11-10T15:54:35.672Z,52.89
2022-11-10T15:57:22.219Z,53.77
2022-11-10T16:00:11.313Z,52.37
2022-11-10T16:02:57.313Z,52.02
2022-11-10T16:05:42.743Z,51.94
2022-11-10T16:08:31.652Z,51.70
2022-11-10T16:11:17.858Z,51.09
2022-11-10T16:14:03.688Z,53.59
2022-11-10T16:16:49.111Z,53.92
2022-11-10T16:19:34.587Z,53.24
2022-11-10T16:22:20.148Z,52.73
2022-11-10T16:25:06.062Z,51.80
2022-11-10T16:27:51.553Z,53.97
2022-11-10T16:30:37.651Z,55.14
2022-11-10T16:33:23.712Z,52.68
2022-11-10T16:36:14.754Z,54.23
2022-11-10T16:39:04.030Z,55.38
2022-11-10T16:41:49.581Z,54.51
2022-11-10T16:44:38.697Z,56.86
2022-11-10T16:47:26.978Z,59.24
2022-11-10T16:50:45.295Z,57.39
2022-11-10T16:53:31.432Z,59.77
2022-11-10T16:56:17.277Z,57.49
2022-11-10T16:59:04.302Z,55.24
2022-11-10T17:01:49.921Z,55.64
2022-11-10T17:04:35.778Z,58.23
2022-11-10T17:07:23.510Z,58.42
2022-11-10T17:10:13.918Z,58.56
2022-11-10T17:12:59.652Z,56.63
2022-11-10T17:15:45.576Z,54.92
2022-11-10T17:18:31.203Z,55.72
2022-11-10T17:21:16.926Z,55.63
2022-11-10T17:24:04.439Z,54.77
2022-11-10T17:26:50.554Z,56.79
2022-11-10T17:29:37.116Z,56.56
2022-11-10T17:32:43.151Z,54.89
2022-11-10T17:35:29.056Z,58.95
2022-11-10T17:38:17.527Z,57.52
2022-11-10T17:41:03.480Z,58.57
2022-11-10T17:43:51.075Z,58.57
2022-11-10T17:46:37.222Z,56.03
2022-11-10T17:49:22.924Z,56.74
2022-11-10T17:52:09.486Z,57.72
2022-11-10T17:54:55.929Z,58.01
2022-11-10T17:57:41.823Z,58.38
2022-11-10T18:00:27.764Z,55.17
2022-11-10T18:03:14.266Z,55.90
2022-11-10T18:06:00.219Z,57.19
2022-11-10T18:08:46.949Z,56.27
2022-11-10T18:11:32.910Z,58.48
2022-11-10T18:14:19.996Z,59.24
2022-11-10T18:17:06.007Z,59.93
2022-11-10T18:19:51.726Z,57.67
2022-11-10T18:22:37.659Z,57.50
2022-11-10T18:25:23.903Z,57.74
2022-11-10T18:28:10.411Z,59.71
2022-11-10T18:30:56.855Z,58.85
2022-11-10T18:33:42.649Z,60.04
2022-11-10T18:36:28.948Z,58.60
2022-11-10T18:39:15.114Z,57.15
2022-11-10T18:42:01.309Z,62.84
2022-11-10T18:44:47.244Z,62.80
2022-11-10T18:47:36.814Z,60.43
2022-11-10T18:50:23.181Z,61.85
2022-11-10T18:53:09.248Z,58.11
2022-11-10T18:55:55.560Z,61.78
2022-11-10T18:58:44.598Z,63.54
2022-11-10T19:01:32.191Z,62.58
2022-11-10T19:04:18.362Z,59.69
2022-11-10T19:07:04.705Z,58.95
2022-11-10T19:09:51.074Z,58.40
2022-11-10T19:12:37.316Z,56.60
2022-11-10T19:15:23.517Z,55.81
2022-11-10T19:18:10.071Z,56.43
2022-11-10T19:20:56.550Z,54.43
2022-11-10T19:23:42.837Z,56.58
2022-11-10T19:26:29.096Z,55.31
2022-11-10T19:29:16.070Z,58.25
2022-11-10T19:32:01.998Z,56.31
2022-11-10T19:34:48.401Z,55.25
2022-11-10T19:37:34.717Z,54.34
2022-11-10T19:40:21.099Z,55.54
2022-11-10T19:43:07.334Z,57.81
2022-11-10T19:45:53.155Z,58.91
2022-11-10T19:48:39.196Z,57.95
2022-11-10T19:51:26.060Z,56.52
2022-11-10T19:54:13.746Z,54.57
2022-11-10T19:57:01.198Z,54.26
2022-11-10T19:59:47.658Z,54.31
2022-11-10T20:02:33.816Z,53.37
2022-11-10T20:05:19.870Z,53.84
2022-11-10T20:08:12.644Z,54.01
2022-11-10T20:10:59.751Z,51.20
2022-11-10T20:13:45.868Z,54.83
2022-11-10T20:16:33.233Z,53.52
2022-11-10T20:19:20.188Z,52.73
2022-11-10T20:22:07.328Z,52.22
2022-11-10T20:24:52.959Z,52.92
2022-11-10T20:27:39.243Z,54.61
2022-11-10T20:30:25.185Z,54.17
2022-11-10T20:33:11.107Z,53.34
2022-11-10T20:36:02.907Z,53.53
2022-11-10T20:38:49.707Z,52.89
2022-11-10T20:41:37.653Z,51.05
2022-11-10T20:44:23.661Z,51.52
2022-11-10T20:47:09.714Z,50.44
2022-11-10T20:49:56.181Z,51.06
2022-11-10T20:52:42.227Z,51.59
2022-11-10T20:55:51.957Z,51.59
2022-11-10T20:58:34.563Z,51.61
2022-11-10T21:01:21.527Z,50.62
2022-11-10T21:04:09.029Z,50.22
2022-11-10T21:06:54.774Z,48.98
2022-11-10T21:09:40.775Z,48.18
2022-11-10T21:12:45.577Z,48.59
2022-11-10T21:15:31.404Z,51.37
2022-11-10T21:18:17.411Z,50.88
2022-11-10T21:21:04.221Z,52.00
2022-11-10T21:23:58.104Z,53.74
2022-11-10T21:26:43.609Z,51.75
2022-11-10T21:29:29.377Z,52.65
2022-11-10T21:32:16.324Z,53.03
2022-11-10T21:35:01.937Z,53.46
2022-11-10T21:37:47.364Z,52.41
2022-11-10T21:40:33.320Z,50.69
2022-11-10T21:43:18.767Z,51.44
2022-11-10T21:46:06.770Z,51.07
2022-11-10T21:48:52.246Z,53.95
2022-11-10T21:51:37.933Z,53.91
2022-11-10T21:54:23.764Z,52.34
2022-11-10T21:57:09.422Z,54.16
2022-11-10T21:59:56.179Z,55.69
2022-11-10T22:02:41.953Z,57.20
2022-11-10T22:05:27.704Z,57.22
2022-11-10T22:08:14.244Z,57.54
2022-11-10T22:11:19.838Z,59.40
2022-11-10T22:14:30.654Z,56.02
2022-11-10T22:17:35.392Z,55.84
2022-11-10T22:20:21.184Z,55.52
2022-11-10T22:23:06.849Z,60.93
2022-11-10T22:25:52.566Z,61.88
2022-11-10T22:28:38.447Z,59.53
2022-11-10T22:31:24.110Z,60.71
2022-11-10T22:34:10.582Z,60.85
2022-11-10T22:36:56.123Z,59.43
2022-11-10T22:40:10.985Z,58.76
2022-11-10T22:43:14.832Z,59.19
2022-11-10T22:46:00.488Z,60.30
2022-11-10T22:48:46.349Z,56.80
2022-11-10T22:51:32.530Z,56.94
2022-11-10T22:54:19.564Z,58.82
2022-11-10T22:57:05.456Z,56.86
2022-11-10T22:59:51.209Z,56.73
2022-11-10T23:02:37.088Z,56.07
2022-11-10T23:05:22.761Z,55.74
2022-11-10T23:08:08.625Z,54.88
2022-11-10T23:11:04.449Z,54.47
2022-11-10T23:13:50.665Z,51.59
2022-11-10T23:16:36.459Z,52.32
2022-11-10T23:19:22.199Z,51.20
2022-11-10T23:22:07.976Z,50.29
2022-11-10T23:24:57.006Z,50.89
2022-11-10T23:27:43.467Z,50.88
2022-11-10T23:30:28.974Z,50.99
2022-11-10T23:33:14.616Z,51.62
2022-11-10T23:36:00.246Z,49.66
2022-11-10T23:38:48.624Z,49.43
2022-11-10T23:41:34.282Z,51.04
2022-11-10T23:44:20.680Z,48.99
2022-11-10T23:47:06.249Z,49.30
2022-11-10T23:49:51.730Z,48.60
2022-11-10T23:52:37.447Z,47.72
2022-11-10T23:55:23.156Z,48.80
2022-11-10T23:58:08.925Z,50.27
